sensor_id;sensor_type;location;lat;lon;timestamp;temperature;humidity
55016;DHT22;40919;43.236;21.590;2023-03-05T00:00:16;230.70;2252.80
55016;DHT22;40919;43.236;21.590;2023-03-05T00:02:42;230.70;2252.80
55016;DHT22;40919;43.236;21.590;2023-03-05T00:05:08;230.70;2252.80
55016;DHT22;40919;43.236;21.590;2023-03-05T00:07:34;230.70;2252.80
55016;DHT22;40919;43.236;21.590;2023-03-05T00:10:00;230.70;2252.80
55016;DHT22;40919;43.236;21.590;2023-03-05T00:12:26;230.90;2252.80
55016;DHT22;40919;43.236;21.590;2023-03-05T00:14:52;230.70;2252.80
55016;DHT22;40919;43.236;21.590;2023-03-05T00:17:18;230.70;2252.80
55016;DHT22;40919;43.236;21.590;2023-03-05T00:19:43;230.70;2252.80
55016;DHT22;40919;43.236;21.590;2023-03-05T00:22:09;230.60;2252.80
55016;DHT22;40919;43.236;21.590;2023-03-05T00:24:35;230.60;2252.80
55016;DHT22;40919;43.236;21.590;2023-03-05T00:27:01;230.60;2252.80
55016;DHT22;40919;43.236;21.590;2023-03-05T00:29:26;230.60;2252.80
55016;DHT22;40919;43.236;21.590;2023-03-05T00:31:53;230.60;2252.80
55016;DHT22;40919;43.236;21.590;2023-03-05T00:34:20;230.50;2252.80
55016;DHT22;40919;43.236;21.590;2023-03-05T00:36:48;230.50;2252.80
55016;DHT22;40919;43.236;21.590;2023-03-05T00:39:15;230.50;2252.80
55016;DHT22;40919;43.236;21.590;2023-03-05T00:41:42;230.50;2252.80
55016;DHT22;40919;43.236;21.590;2023-03-05T00:44:08;230.60;2252.80
55016;DHT22;40919;43.236;21.590;2023-03-05T00:46:34;230.50;2252.80
55016;DHT22;40919;43.236;21.590;2023-03-05T00:49:00;230.50;2252.80
55016;DHT22;40919;43.236;21.590;2023-03-05T00:51:26;230.60;2252.80
55016;DHT22;40919;43.236;21.590;2023-03-05T00:53:53;230.50;2252.80
55016;DHT22;40919;43.236;21.590;2023-03-05T00:56:19;230.50;2252.80
55016;DHT22;40919;43.236;21.590;2023-03-05T00:58:44;230.40;2252.80
55016;DHT22;40919;43.236;21.590;2023-03-05T01:01:10;230.50;2252.80
55016;DHT22;40919;43.236;21.590;2023-03-05T01:03:36;230.40;2252.80
55016;DHT22;40919;43.236;21.590;2023-03-05T01:06:11;230.40;2252.80
55016;DHT22;40919;43.236;21.590;2023-03-05T01:08:38;230.50;2252.80
55016;DHT22;40919;43.236;21.590;2023-03-05T01:11:05;230.50;2252.80
55016;DHT22;40919;43.236;21.590;2023-03-05T01:13:31;230.50;2252.80
55016;DHT22;40919;43.236;21.590;2023-03-05T01:15:56;230.50;2252.80
55016;DHT22;40919;43.236;21.590;2023-03-05T01:18:22;230.40;2252.80
55016;DHT22;40919;43.236;21.590;2023-03-05T01:20:48;205.60;2252.80
55016;DHT22;40919;43.236;21.590;2023-03-05T01:23:14;205.60;2252.80
55016;DHT22;40919;43.236;21.590;2023-03-05T01:25:40;205.60;2252.80
55016;DHT22;40919;43.236;21.590;2023-03-05T01:28:06;205.70;2252.80
55016;DHT22;40919;43.236;21.590;2023-03-05T01:30:32;205.70;2252.80
55016;DHT22;40919;43.236;21.590;2023-03-05T01:32:58;230.40;2252.80
55016;DHT22;40919;43.236;21.590;2023-03-05T01:35:25;230.40;2252.80
55016;DHT22;40919;43.236;21.590;2023-03-05T01:37:51;230.50;2252.80
55016;DHT22;40919;43.236;21.590;2023-03-05T01:40:21;230.50;2252.80
55016;DHT22;40919;43.236;21.590;2023-03-05T01:43:20;230.50;2252.80
55016;DHT22;40919;43.236;21.590;2023-03-05T01:48:46;205.60;2252.80
55016;DHT22;40919;43.236;21.590;2023-03-05T01:51:14;205.40;2252.80
55016;DHT22;40919;43.236;21.590;2023-03-05T01:53:40;205.40;2252.80
55016;DHT22;40919;43.236;21.590;2023-03-05T01:56:06;205.40;2252.80
55016;DHT22;40919;43.236;21.590;2023-03-05T01:58:32;205.40;2252.80
55016;DHT22;40919;43.236;21.590;2023-03-05T02:00:58;205.50;2252.80
55016;DHT22;40919;43.236;21.590;2023-03-05T02:03:24;205.40;2252.80
55016;DHT22;40919;43.236;21.590;2023-03-05T02:05:50;205.60;2252.80
55016;DHT22;40919;43.236;21.590;2023-03-05T02:08:18;205.60;2252.80
55016;DHT22;40919;43.236;21.590;2023-03-05T02:10:47;205.60;2252.80
55016;DHT22;40919;43.236;21.590;2023-03-05T02:13:20;205.70;2252.80
55016;DHT22;40919;43.236;21.590;2023-03-05T02:15:47;205.70;2252.80
55016;DHT22;40919;43.236;21.590;2023-03-05T02:18:15;205.70;2252.80
55016;DHT22;40919;43.236;21.590;2023-03-05T02:23:23;205.70;2252.80
55016;DHT22;40919;43.236;21.590;2023-03-05T02:25:49;205.70;2252.80
55016;DHT22;40919;43.236;21.590;2023-03-05T02:28:33;205.70;2252.80
55016;DHT22;40919;43.236;21.590;2023-03-05T02:31:06;230.60;2252.80
55016;DHT22;40919;43.236;21.590;2023-03-05T02:33:33;230.40;2252.80
55016;DHT22;40919;43.236;21.590;2023-03-05T02:35:58;230.50;2252.80
55016;DHT22;40919;43.236;21.590;2023-03-05T02:38:24;230.50;2252.80
55016;DHT22;40919;43.236;21.590;2023-03-05T02:40:50;230.50;2252.80
55016;DHT22;40919;43.236;21.590;2023-03-05T02:43:16;230.50;2252.80
55016;DHT22;40919;43.236;21.590;2023-03-05T02:45:41;230.50;2252.80
55016;DHT22;40919;43.236;21.590;2023-03-05T02:48:07;230.40;2252.80
55016;DHT22;40919;43.236;21.590;2023-03-05T02:50:33;205.70;2252.80
55016;DHT22;40919;43.236;21.590;2023-03-05T02:53:00;205.50;2252.80
55016;DHT22;40919;43.236;21.590;2023-03-05T02:55:25;205.40;2252.80
55016;DHT22;40919;43.236;21.590;2023-03-05T02:57:51;205.40;2252.80
55016;DHT22;40919;43.236;21.590;2023-03-05T03:00:17;205.40;2252.80
55016;DHT22;40919;43.236;21.590;2023-03-05T03:02:43;205.40;2252.80
55016;DHT22;40919;43.236;21.590;2023-03-05T03:05:09;205.40;2252.80
55016;DHT22;40919;43.236;21.590;2023-03-05T03:07:34;205.40;2252.80
55016;DHT22;40919;43.236;21.590;2023-03-05T03:10:02;205.40;2252.80
55016;DHT22;40919;43.236;21.590;2023-03-05T03:12:27;205.40;2252.80
55016;DHT22;40919;43.236;21.590;2023-03-05T03:14:53;205.50;2252.80
55016;DHT22;40919;43.236;21.590;2023-03-05T03:17:19;205.40;2252.80
55016;DHT22;40919;43.236;21.590;2023-03-05T03:19:45;205.40;2252.80
55016;DHT22;40919;43.236;21.590;2023-03-05T03:22:13;205.40;2252.80
55016;DHT22;40919;43.236;21.590;2023-03-05T03:24:40;205.40;2252.80
55016;DHT22;40919;43.236;21.590;2023-03-05T03:27:06;205.30;2252.80
55016;DHT22;40919;43.236;21.590;2023-03-05T03:29:32;205.30;2252.80
55016;DHT22;40919;43.236;21.590;2023-03-05T03:31:58;205.20;2252.80
55016;DHT22;40919;43.236;21.590;2023-03-05T03:34:24;205.20;2252.80
55016;DHT22;40919;43.236;21.590;2023-03-05T03:36:51;205.20;2252.80
55016;DHT22;40919;43.236;21.590;2023-03-05T03:39:20;205.20;2252.80
55016;DHT22;40919;43.236;21.590;2023-03-05T03:41:49;205.20;2252.80
55016;DHT22;40919;43.236;21.590;2023-03-05T03:44:16;205.20;2252.80
55016;DHT22;40919;43.236;21.590;2023-03-05T03:46:43;205.20;2252.80
55016;DHT22;40919;43.236;21.590;2023-03-05T03:49:21;205.20;2252.80
55016;DHT22;40919;43.236;21.590;2023-03-05T03:51:47;205.20;2252.80
55016;DHT22;40919;43.236;21.590;2023-03-05T03:54:15;205.20;2252.80
55016;DHT22;40919;43.236;21.590;2023-03-05T03:56:41;205.20;2252.80
55016;DHT22;40919;43.236;21.590;2023-03-05T03:59:08;205.10;2252.80
55016;DHT22;40919;43.236;21.590;2023-03-05T04:01:33;205.10;2252.80
55016;DHT22;40919;43.236;21.590;2023-03-05T04:03:59;205.10;2252.80
55016;DHT22;40919;43.236;21.590;2023-03-05T04:06:25;205.20;2252.80
55016;DHT22;40919;43.236;21.590;2023-03-05T04:08:51;205.20;2252.80
55016;DHT22;40919;43.236;21.590;2023-03-05T04:11:18;205.10;2252.80
55016;DHT22;40919;43.236;21.590;2023-03-05T04:13:45;205.20;2252.80
55016;DHT22;40919;43.236;21.590;2023-03-05T04:16:11;205.10;2252.80
55016;DHT22;40919;43.236;21.590;2023-03-05T04:18:37;205.10;2252.80
55016;DHT22;40919;43.236;21.590;2023-03-05T04:21:03;205.10;2252.80
55016;DHT22;40919;43.236;21.590;2023-03-05T04:23:28;205.00;2252.80
55016;DHT22;40919;43.236;21.590;2023-03-05T04:25:54;205.10;2252.80
55016;DHT22;40919;43.236;21.590;2023-03-05T04:28:20;205.10;2252.80
55016;DHT22;40919;43.236;21.590;2023-03-05T04:30:46;205.10;2252.80
55016;DHT22;40919;43.236;21.590;2023-03-05T04:33:12;205.10;2252.80
55016;DHT22;40919;43.236;21.590;2023-03-05T04:35:37;205.10;2252.80
55016;DHT22;40919;43.236;21.590;2023-03-05T04:38:03;205.10;2252.80
55016;DHT22;40919;43.236;21.590;2023-03-05T04:40:29;205.00;2252.80
55016;DHT22;40919;43.236;21.590;2023-03-05T04:42:55;205.10;2252.80
55016;DHT22;40919;43.236;21.590;2023-03-05T04:45:20;205.10;2252.80
55016;DHT22;40919;43.236;21.590;2023-03-05T04:47:46;204.90;2252.80
55016;DHT22;40919;43.236;21.590;2023-03-05T04:50:13;204.90;2252.80
55016;DHT22;40919;43.236;21.590;2023-03-05T04:52:43;204.80;2252.80
55016;DHT22;40919;43.236;21.590;2023-03-05T04:55:10;204.90;2252.80
55016;DHT22;40919;43.236;21.590;2023-03-05T04:57:36;204.90;2252.80
55016;DHT22;40919;43.236;21.590;2023-03-05T05:00:04;205.10;2252.80
55016;DHT22;40919;43.236;21.590;2023-03-05T05:02:47;205.10;2252.80
55016;DHT22;40919;43.236;21.590;2023-03-05T05:05:17;205.20;2252.80
55016;DHT22;40919;43.236;21.590;2023-03-05T05:07:43;205.10;2252.80
55016;DHT22;40919;43.236;21.590;2023-03-05T05:10:10;205.20;2252.80
55016;DHT22;40919;43.236;21.590;2023-03-05T05:12:36;205.20;2252.80
55016;DHT22;40919;43.236;21.590;2023-03-05T05:15:03;205.00;2252.80
55016;DHT22;40919;43.236;21.590;2023-03-05T05:17:29;205.00;2252.80
55016;DHT22;40919;43.236;21.590;2023-03-05T05:19:58;205.10;2252.80
55016;DHT22;40919;43.236;21.590;2023-03-05T05:22:24;204.90;2252.80
55016;DHT22;40919;43.236;21.590;2023-03-05T05:24:50;204.80;2252.80
55016;DHT22;40919;43.236;21.590;2023-03-05T05:27:15;180.00;2252.80
55016;DHT22;40919;43.236;21.590;2023-03-05T05:29:41;179.90;2252.80
55016;DHT22;40919;43.236;21.590;2023-03-05T05:32:07;179.90;2252.80
55016;DHT22;40919;43.236;21.590;2023-03-05T05:34:33;180.00;2252.80
55016;DHT22;40919;43.236;21.590;2023-03-05T05:36:59;179.90;2252.80
55016;DHT22;40919;43.236;21.590;2023-03-05T05:39:25;180.00;2252.80
55016;DHT22;40919;43.236;21.590;2023-03-05T05:41:51;180.00;2252.80
55016;DHT22;40919;43.236;21.590;2023-03-05T05:44:18;180.00;2252.80
55016;DHT22;40919;43.236;21.590;2023-03-05T05:46:43;180.10;2252.80
55016;DHT22;40919;43.236;21.590;2023-03-05T05:49:09;180.10;2252.80
55016;DHT22;40919;43.236;21.590;2023-03-05T05:51:35;204.80;2252.80
55016;DHT22;40919;43.236;21.590;2023-03-05T05:54:01;180.10;2252.80
55016;DHT22;40919;43.236;21.590;2023-03-05T05:56:26;204.80;2252.80
55016;DHT22;40919;43.236;21.590;2023-03-05T05:58:52;204.80;2252.80
55016;DHT22;40919;43.236;21.590;2023-03-05T06:01:23;205.00;2252.80
55016;DHT22;40919;43.236;21.590;2023-03-05T06:03:49;180.10;2252.80
55016;DHT22;40919;43.236;21.590;2023-03-05T06:06:18;180.00;2252.80
55016;DHT22;40919;43.236;21.590;2023-03-05T06:08:44;179.90;2252.80
55016;DHT22;40919;43.236;21.590;2023-03-05T06:11:11;180.00;2252.80
55016;DHT22;40919;43.236;21.590;2023-03-05T06:13:37;180.00;2252.80
55016;DHT22;40919;43.236;21.590;2023-03-05T06:16:06;180.00;2252.80
55016;DHT22;40919;43.236;21.590;2023-03-05T06:18:33;180.00;2252.80
55016;DHT22;40919;43.236;21.590;2023-03-05T06:21:02;180.10;2252.80
55016;DHT22;40919;43.236;21.590;2023-03-05T06:23:28;204.80;2252.80
55016;DHT22;40919;43.236;21.590;2023-03-05T06:25:57;204.80;2252.80
55016;DHT22;40919;43.236;21.590;2023-03-05T06:28:23;204.90;2252.80
55016;DHT22;40919;43.236;21.590;2023-03-05T06:30:49;204.90;2252.80
55016;DHT22;40919;43.236;21.590;2023-03-05T06:33:15;204.90;2252.80
55016;DHT22;40919;43.236;21.590;2023-03-05T06:35:40;205.00;2252.80
55016;DHT22;40919;43.236;21.590;2023-03-05T06:38:07;205.00;2252.80
55016;DHT22;40919;43.236;21.590;2023-03-05T06:40:33;205.00;2252.80
55016;DHT22;40919;43.236;21.590;2023-03-05T06:42:59;205.00;2252.80
55016;DHT22;40919;43.236;21.590;2023-03-05T06:45:25;205.00;2252.80
55016;DHT22;40919;43.236;21.590;2023-03-05T06:47:51;205.00;2252.80
55016;DHT22;40919;43.236;21.590;2023-03-05T06:50:17;205.00;2252.80
55016;DHT22;40919;43.236;21.590;2023-03-05T06:52:42;204.90;2252.80
55016;DHT22;40919;43.236;21.590;2023-03-05T06:55:08;204.90;2252.80
55016;DHT22;40919;43.236;21.590;2023-03-05T06:57:36;205.00;2252.80
55016;DHT22;40919;43.236;21.590;2023-03-05T07:00:03;205.00;2252.80
55016;DHT22;40919;43.236;21.590;2023-03-05T07:02:38;205.00;2252.80
55016;DHT22;40919;43.236;21.590;2023-03-05T07:05:05;205.00;2252.80
55016;DHT22;40919;43.236;21.590;2023-03-05T07:07:32;205.00;2252.80
55016;DHT22;40919;43.236;21.590;2023-03-05T07:09:58;204.90;2252.80
55016;DHT22;40919;43.236;21.590;2023-03-05T07:12:24;204.90;2252.80
55016;DHT22;40919;43.236;21.590;2023-03-05T07:14:49;204.90;2252.80
55016;DHT22;40919;43.236;21.590;2023-03-05T07:17:16;205.00;2252.80
55016;DHT22;40919;43.236;21.590;2023-03-05T07:19:42;205.30;2252.80
55016;DHT22;40919;43.236;21.590;2023-03-05T07:22:08;205.20;2252.80
55016;DHT22;40919;43.236;21.590;2023-03-05T07:24:35;205.40;2252.80
55016;DHT22;40919;43.236;21.590;2023-03-05T07:27:00;205.30;2252.80
55016;DHT22;40919;43.236;21.590;2023-03-05T07:29:27;205.30;2252.80
55016;DHT22;40919;43.236;21.590;2023-03-05T07:31:53;205.40;2252.80
55016;DHT22;40919;43.236;21.590;2023-03-05T07:34:19;205.40;2252.80
55016;DHT22;40919;43.236;21.590;2023-03-05T07:36:48;205.40;2252.80
55016;DHT22;40919;43.236;21.590;2023-03-05T07:39:14;205.50;2252.80
55016;DHT22;40919;43.236;21.590;2023-03-05T07:41:40;205.60;2252.80
55016;DHT22;40919;43.236;21.590;2023-03-05T07:44:05;205.70;2252.80
55016;DHT22;40919;43.236;21.590;2023-03-05T07:46:32;230.40;2252.80
55016;DHT22;40919;43.236;21.590;2023-03-05T07:48:58;230.40;2252.80
55016;DHT22;40919;43.236;21.590;2023-03-05T07:51:26;230.80;2252.80
55016;DHT22;40919;43.236;21.590;2023-03-05T07:53:52;230.50;2252.80
55016;DHT22;40919;43.236;21.590;2023-03-05T07:56:33;230.60;2252.80
55016;DHT22;40919;43.236;21.590;2023-03-05T07:59:10;230.70;2252.80
55016;DHT22;40919;43.236;21.590;2023-03-05T08:01:37;230.70;2252.80
55016;DHT22;40919;43.236;21.590;2023-03-05T08:04:04;230.80;2252.80
55016;DHT22;40919;43.236;21.590;2023-03-05T08:06:30;230.80;2252.80
55016;DHT22;40919;43.236;21.590;2023-03-05T08:08:57;230.80;2252.80
55016;DHT22;40919;43.236;21.590;2023-03-05T08:11:23;230.90;2252.80
55016;DHT22;40919;43.236;21.590;2023-03-05T08:13:49;230.80;2252.80
55016;DHT22;40919;43.236;21.590;2023-03-05T08:16:19;230.90;2252.80
55016;DHT22;40919;43.236;21.590;2023-03-05T08:18:46;230.90;2252.80
55016;DHT22;40919;43.236;21.590;2023-03-05T08:21:24;230.90;2252.80
55016;DHT22;40919;43.236;21.590;2023-03-05T08:23:55;230.90;2252.80
55016;DHT22;40919;43.236;21.590;2023-03-05T08:26:22;230.80;2252.80
55016;DHT22;40919;43.236;21.590;2023-03-05T08:28:49;230.90;2252.80
55016;DHT22;40919;43.236;21.590;2023-03-05T08:31:15;230.80;2252.80
55016;DHT22;40919;43.236;21.590;2023-03-05T08:33:42;230.90;2252.80
55016;DHT22;40919;43.236;21.590;2023-03-05T08:36:08;230.90;2252.80
55016;DHT22;40919;43.236;21.590;2023-03-05T08:38:35;230.90;2252.80
55016;DHT22;40919;43.236;21.590;2023-03-05T08:41:01;230.90;2252.80
55016;DHT22;40919;43.236;21.590;2023-03-05T08:43:27;230.90;2252.80
55016;DHT22;40919;43.236;21.590;2023-03-05T08:45:52;231.00;2252.80
55016;DHT22;40919;43.236;21.590;2023-03-05T08:48:19;231.10;2252.80
55016;DHT22;40919;43.236;21.590;2023-03-05T08:50:45;231.20;2252.80
55016;DHT22;40919;43.236;21.590;2023-03-05T08:53:11;231.30;2252.80
55016;DHT22;40919;43.236;21.590;2023-03-05T08:55:37;231.30;2252.80
55016;DHT22;40919;43.236;21.590;2023-03-05T08:58:03;231.20;2252.80
55016;DHT22;40919;43.236;21.590;2023-03-05T09:00:29;231.30;2252.80
55016;DHT22;40919;43.236;21.590;2023-03-05T09:02:55;231.30;2252.80
55016;DHT22;40919;43.236;21.590;2023-03-05T09:05:20;256.00;2252.80
55016;DHT22;40919;43.236;21.590;2023-03-05T09:07:46;256.00;2252.80
55016;DHT22;40919;43.236;21.590;2023-03-05T09:10:12;256.20;2252.80
55016;DHT22;40919;43.236;21.590;2023-03-05T09:12:40;256.10;2252.80
55016;DHT22;40919;43.236;21.590;2023-03-05T09:15:08;256.40;2252.80
55016;DHT22;40919;43.236;21.590;2023-03-05T09:17:35;256.30;2252.80
55016;DHT22;40919;43.236;21.590;2023-03-05T09:20:02;256.20;2252.80
55016;DHT22;40919;43.236;21.590;2023-03-05T09:22:28;256.30;2252.80
55016;DHT22;40919;43.236;21.590;2023-03-05T09:24:54;256.40;2252.80
55016;DHT22;40919;43.236;21.590;2023-03-05T09:27:20;256.40;2252.80
55016;DHT22;40919;43.236;21.590;2023-03-05T09:29:46;256.50;2252.80
55016;DHT22;40919;43.236;21.590;2023-03-05T09:32:12;256.50;2252.80
55016;DHT22;40919;43.236;21.590;2023-03-05T09:34:38;256.50;2252.80
55016;DHT22;40919;43.236;21.590;2023-03-05T09:37:04;256.60;2252.80
55016;DHT22;40919;43.236;21.590;2023-03-05T09:39:30;256.70;2252.80
55016;DHT22;40919;43.236;21.590;2023-03-05T09:47:50;256.90;2252.80
55016;DHT22;40919;43.236;21.590;2023-03-05T09:56:14;281.80;2278.40
55016;DHT22;40919;43.236;21.590;2023-03-05T09:58:53;281.80;2278.40
55016;DHT22;40919;43.236;21.590;2023-03-05T10:01:28;281.70;2252.80
55016;DHT22;40919;43.236;21.590;2023-03-05T10:06:38;281.60;2278.40
55016;DHT22;40919;43.236;21.590;2023-03-05T10:11:56;256.70;2252.80
55016;DHT22;40919;43.236;21.590;2023-03-05T10:14:33;281.60;2278.40
55016;DHT22;40919;43.236;21.590;2023-03-05T10:17:16;281.60;2278.40
55016;DHT22;40919;43.236;21.590;2023-03-05T10:25:25;282.20;2278.40
55016;DHT22;40919;43.236;21.590;2023-03-05T10:28:04;282.30;2278.40
55016;DHT22;40919;43.236;21.590;2023-03-05T10:33:46;282.20;2278.40
55016;DHT22;40919;43.236;21.590;2023-03-05T10:45:17;281.90;2278.40
55016;DHT22;40919;43.236;21.590;2023-03-05T10:50:36;281.80;2278.40
55016;DHT22;40919;43.236;21.590;2023-03-05T10:53:24;281.70;2278.40
55016;DHT22;40919;43.236;21.590;2023-03-05T10:55:52;281.80;2278.40
55016;DHT22;40919;43.236;21.590;2023-03-05T10:58:21;281.80;2278.40
55016;DHT22;40919;43.236;21.590;2023-03-05T11:01:22;281.80;2278.40
55016;DHT22;40919;43.236;21.590;2023-03-05T11:03:57;281.80;2252.80
55016;DHT22;40919;43.236;21.590;2023-03-05T11:11:40;282.00;2150.40
55016;DHT22;40919;43.236;21.590;2023-03-05T11:14:22;281.90;2150.40
55016;DHT22;40919;43.236;21.590;2023-03-05T11:16:54;282.00;2201.60
55016;DHT22;40919;43.236;21.590;2023-03-05T11:19:25;281.90;2201.60
55016;DHT22;40919;43.236;21.590;2023-03-05T11:22:19;281.90;2227.20
55016;DHT22;40919;43.236;21.590;2023-03-05T11:27:38;281.70;2176.00
55016;DHT22;40919;43.236;21.590;2023-03-05T11:30:35;281.70;2201.60
55016;DHT22;40919;43.236;21.590;2023-03-05T11:35:36;281.80;2252.80
55016;DHT22;40919;43.236;21.590;2023-03-05T11:38:04;281.70;2201.60
55016;DHT22;40919;43.236;21.590;2023-03-05T11:40:32;281.70;2201.60
55016;DHT22;40919;43.236;21.590;2023-03-05T11:43:02;281.70;2252.80
55016;DHT22;40919;43.236;21.590;2023-03-05T11:45:31;281.80;2252.80
55016;DHT22;40919;43.236;21.590;2023-03-05T11:48:49;281.80;2278.40
55016;DHT22;40919;43.236;21.590;2023-03-05T11:51:00;281.90;2278.40
55016;DHT22;40919;43.236;21.590;2023-03-05T11:53:27;282.00;2227.20
55016;DHT22;40919;43.236;21.590;2023-03-05T11:55:55;282.10;2227.20
55016;DHT22;40919;43.236;21.590;2023-03-05T12:00:58;282.00;2227.20
55016;DHT22;40919;43.236;21.590;2023-03-05T12:03:35;281.90;2201.60
55016;DHT22;40919;43.236;21.590;2023-03-05T12:06:13;281.80;2252.80
55016;DHT22;40919;43.236;21.590;2023-03-05T12:08:44;281.80;2278.40
55016;DHT22;40919;43.236;21.590;2023-03-05T12:11:26;281.90;2252.80
55016;DHT22;40919;43.236;21.590;2023-03-05T12:17:03;281.70;2278.40
55016;DHT22;40919;43.236;21.590;2023-03-05T12:22:36;281.70;2278.40
55016;DHT22;40919;43.236;21.590;2023-03-05T12:25:29;281.70;2278.40
55016;DHT22;40919;43.236;21.590;2023-03-05T12:27:55;281.70;2278.40
55016;DHT22;40919;43.236;21.590;2023-03-05T12:33:40;281.60;2278.40
55016;DHT22;40919;43.236;21.590;2023-03-05T12:38:54;281.60;2278.40
55016;DHT22;40919;43.236;21.590;2023-03-05T12:51:49;281.70;2278.40
55016;DHT22;40919;43.236;21.590;2023-03-05T12:54:35;281.70;2278.40
55016;DHT22;40919;43.236;21.590;2023-03-05T12:57:17;281.70;2278.40
55016;DHT22;40919;43.236;21.590;2023-03-05T12:59:53;281.70;2278.40
55016;DHT22;40919;43.236;21.590;2023-03-05T13:02:38;281.80;2278.40
55016;DHT22;40919;43.236;21.590;2023-03-05T13:05:35;281.80;2278.40
55016;DHT22;40919;43.236;21.590;2023-03-05T13:10:36;307.60;2304.00
55016;DHT22;40919;43.236;21.590;2023-03-05T13:13:02;308.00;2252.80
55016;DHT22;40919;43.236;21.590;2023-03-05T13:15:28;333.00;2252.80
55016;DHT22;40919;43.236;21.590;2023-03-05T13:17:57;333.30;2227.20
55016;DHT22;40919;43.236;21.590;2023-03-05T13:20:35;333.50;2176.00
55016;DHT22;40919;43.236;21.590;2023-03-05T13:23:25;333.70;2201.60
55016;DHT22;40919;43.236;21.590;2023-03-05T13:28:36;333.30;2150.40
55016;DHT22;40919;43.236;21.590;2023-03-05T13:31:12;333.40;2150.40
55016;DHT22;40919;43.236;21.590;2023-03-05T13:33:38;333.70;2150.40
55016;DHT22;40919;43.236;21.590;2023-03-05T13:36:05;333.40;2099.20
55016;DHT22;40919;43.236;21.590;2023-03-05T13:38:44;358.40;2124.80
55016;DHT22;40919;43.236;21.590;2023-03-05T13:43:47;333.10;2124.80
55016;DHT22;40919;43.236;21.590;2023-03-05T13:46:32;333.30;2099.20
55016;DHT22;40919;43.236;21.590;2023-03-05T13:49:24;333.60;2099.20
55016;DHT22;40919;43.236;21.590;2023-03-05T13:51:52;358.60;2099.20
55016;DHT22;40919;43.236;21.590;2023-03-05T13:54:20;333.40;2022.40
55016;DHT22;40919;43.236;21.590;2023-03-05T13:56:50;333.10;2124.80
55016;DHT22;40919;43.236;21.590;2023-03-05T13:59:18;332.80;2124.80
55016;DHT22;40919;43.236;21.590;2023-03-05T14:01:46;307.80;2124.80
55016;DHT22;40919;43.236;21.590;2023-03-05T14:07:02;307.60;2227.20
55016;DHT22;40919;43.236;21.590;2023-03-05T14:12:05;307.30;2227.20
55016;DHT22;40919;43.236;21.590;2023-03-05T14:14:36;307.20;2278.40
55016;DHT22;40919;43.236;21.590;2023-03-05T14:19:48;282.40;2227.20
55016;DHT22;40919;43.236;21.590;2023-03-05T14:22:32;282.30;2252.80
55016;DHT22;40919;43.236;21.590;2023-03-05T14:24:58;282.30;2278.40
55016;DHT22;40919;43.236;21.590;2023-03-05T14:27:24;282.20;2252.80
55016;DHT22;40919;43.236;21.590;2023-03-05T14:29:50;282.10;2252.80
55016;DHT22;40919;43.236;21.590;2023-03-05T14:32:27;281.90;2252.80
55016;DHT22;40919;43.236;21.590;2023-03-05T14:34:57;281.90;2278.40
55016;DHT22;40919;43.236;21.590;2023-03-05T14:40:21;281.80;2252.80
55016;DHT22;40919;43.236;21.590;2023-03-05T14:42:54;281.70;2252.80
55016;DHT22;40919;43.236;21.590;2023-03-05T14:45:26;281.80;2278.40
55016;DHT22;40919;43.236;21.590;2023-03-05T14:47:53;281.80;2252.80
55016;DHT22;40919;43.236;21.590;2023-03-05T14:50:31;281.70;2227.20
55016;DHT22;40919;43.236;21.590;2023-03-05T14:53:03;281.80;2278.40
55016;DHT22;40919;43.236;21.590;2023-03-05T14:55:32;256.90;2227.20
55016;DHT22;40919;43.236;21.590;2023-03-05T14:58:01;256.90;2252.80
55016;DHT22;40919;43.236;21.590;2023-03-05T15:00:29;256.90;2252.80
55016;DHT22;40919;43.236;21.590;2023-03-05T15:02:56;256.80;2252.80
55016;DHT22;40919;43.236;21.590;2023-03-05T15:05:22;256.80;2252.80
55016;DHT22;40919;43.236;21.590;2023-03-05T15:07:49;256.50;2252.80
55016;DHT22;40919;43.236;21.590;2023-03-05T15:10:21;256.70;2252.80
55016;DHT22;40919;43.236;21.590;2023-03-05T15:12:48;256.70;2252.80
55016;DHT22;40919;43.236;21.590;2023-03-05T15:15:20;256.60;2252.80
55016;DHT22;40919;43.236;21.590;2023-03-05T15:17:48;256.60;2252.80
55016;DHT22;40919;43.236;21.590;2023-03-05T15:20:22;256.50;2252.80
55016;DHT22;40919;43.236;21.590;2023-03-05T15:56:56;231.20;2252.80
55016;DHT22;40919;43.236;21.590;2023-03-05T15:59:22;231.30;2252.80
55016;DHT22;40919;43.236;21.590;2023-03-05T16:01:51;231.30;2252.80
55016;DHT22;40919;43.236;21.590;2023-03-05T16:04:17;231.20;2252.80
55016;DHT22;40919;43.236;21.590;2023-03-05T16:09:14;231.20;2252.80
55016;DHT22;40919;43.236;21.590;2023-03-05T16:11:42;231.20;2252.80
55016;DHT22;40919;43.236;21.590;2023-03-05T16:14:13;231.10;2252.80
55016;DHT22;40919;43.236;21.590;2023-03-05T16:16:41;231.10;2252.80
55016;DHT22;40919;43.236;21.590;2023-03-05T16:19:08;231.10;2252.80
55016;DHT22;40919;43.236;21.590;2023-03-05T16:21:35;231.00;2252.80
55016;DHT22;40919;43.236;21.590;2023-03-05T16:24:01;231.00;2252.80
55016;DHT22;40919;43.236;21.590;2023-03-05T16:26:27;231.00;2252.80
55016;DHT22;40919;43.236;21.590;2023-03-05T16:28:53;231.00;2252.80
55016;DHT22;40919;43.236;21.590;2023-03-05T16:31:19;230.90;2252.80
55016;DHT22;40919;43.236;21.590;2023-03-05T16:33:44;230.90;2252.80
55016;DHT22;40919;43.236;21.590;2023-03-05T16:38:39;230.90;2252.80
55016;DHT22;40919;43.236;21.590;2023-03-05T16:41:04;230.90;2252.80
55016;DHT22;40919;43.236;21.590;2023-03-05T16:43:30;230.80;2252.80
55016;DHT22;40919;43.236;21.590;2023-03-05T16:45:56;230.80;2252.80
55016;DHT22;40919;43.236;21.590;2023-03-05T16:48:22;230.80;2252.80
55016;DHT22;40919;43.236;21.590;2023-03-05T16:50:47;230.80;2252.80
55016;DHT22;40919;43.236;21.590;2023-03-05T16:53:13;230.80;2252.80
55016;DHT22;40919;43.236;21.590;2023-03-05T16:55:39;230.90;2252.80
55016;DHT22;40919;43.236;21.590;2023-03-05T16:58:04;230.90;2252.80
55016;DHT22;40919;43.236;21.590;2023-03-05T17:00:30;230.90;2252.80